Time;durP1;ratioP1;P1;durP2;ratioP2;P2;SDS_P1;SDS_P2;PMS_P1;PMS_P2;Temp;Humidity;BMP_temperature;BMP_pressure;BME280_temperature;BME280_humidity;BME280_pressure;Samples;Min_cycle;Max_cycle;Signal;HPM_P1;HPM_P2
2022/09/01 00:00:33;;;;;;;2.78;1.60;;;;;;;20.22;40.39;101949.59;6305651;22;20061;-60
2022/09/01 00:02:58;;;;;;;3.15;1.50;;;;;;;20.20;40.50;101941.44;6306659;22;20399;-60
2022/09/01 00:05:23;;;;;;;5.03;1.52;;;;;;;20.16;40.53;101945.97;6306320;22;20017;-60
2022/09/01 00:07:49;;;;;;;2.38;1.42;;;;;;;20.08;40.97;101946.56;6306116;22;20128;-60
2022/09/01 00:10:14;;;;;;;1.83;1.35;;;;;;;20.11;40.87;101935.53;6306240;22;20034;-60
2022/09/01 00:12:42;;;;;;;2.03;1.50;;;;;;;20.06;41.32;101941.22;6306978;22;20007;-60
2022/09/01 00:15:09;;;;;;;3.50;1.65;;;;;;;20.03;41.44;101944.63;6305541;22;20019;-59
2022/09/01 00:17:35;;;;;;;3.92;1.40;;;;;;;20.01;41.55;101937.59;6306340;22;20053;-59
2022/09/01 00:20:00;;;;;;;4.45;1.30;;;;;;;20.01;41.71;101934.78;6306977;22;20003;-61
2022/09/01 00:22:26;;;;;;;5.75;1.65;;;;;;;20.01;41.85;101935.63;6305235;22;20058;-60
2022/09/01 00:24:52;;;;;;;4.70;1.63;;;;;;;19.92;42.23;101942.13;6306483;22;20010;-60
2022/09/01 00:27:17;;;;;;;3.15;1.52;;;;;;;19.90;42.33;101938.78;6306047;22;20056;-60
2022/09/01 00:29:42;;;;;;;7.30;1.88;;;;;;;19.92;42.67;101944.94;6305731;22;20057;-59
2022/09/01 00:32:07;;;;;;;5.38;1.50;;;;;;;19.84;42.89;101944.41;6306834;22;20415;-60
2022/09/01 00:34:33;;;;;;;3.22;1.38;;;;;;;19.83;43.09;101948.38;6305431;22;20411;-60
2022/09/01 00:36:59;;;;;;;1.70;1.45;;;;;;;19.77;43.44;101941.09;6306562;22;20010;-60
2022/09/01 00:39:24;;;;;;;3.67;1.48;;;;;;;19.82;43.56;101943.88;6306238;22;20003;-60
2022/09/01 00:41:50;;;;;;;5.55;1.67;;;;;;;19.80;43.71;101948.13;6305671;22;20006;-60
2022/09/01 00:44:22;;;;;;;2.47;1.45;;;;;;;19.75;43.74;101943.34;6306152;22;20006;-60
2022/09/01 00:46:49;;;;;;;3.15;1.45;;;;;;;19.73;44.01;101939.13;6305736;22;20011;-60
2022/09/01 00:49:21;;;;;;;2.80;1.52;;;;;;;19.76;44.00;101945.03;6304995;22;20014;-59
2022/09/01 00:51:49;;;;;;;4.50;1.52;;;;;;;19.70;44.38;101936.91;6306293;22;20007;-60
2022/09/01 00:54:21;;;;;;;2.42;1.45;;;;;;;19.70;44.24;101940.56;6306814;22;20003;-60
2022/09/01 00:56:47;;;;;;;5.13;1.57;;;;;;;19.67;44.44;101943.94;6305824;22;20007;-60
2022/09/01 00:59:14;;;;;;;1.70;1.40;;;;;;;19.71;44.49;101944.22;6305698;22;20411;-60
2022/09/01 01:01:40;;;;;;;4.90;1.50;;;;;;;19.71;44.81;101942.25;6306299;22;20309;-60
2022/09/01 01:04:13;;;;;;;3.85;1.70;;;;;;;19.61;45.08;101940.31;6305267;22;20006;-60
2022/09/01 01:06:48;;;;;;;2.90;1.60;;;;;;;19.64;45.06;101944.53;6306272;22;20328;-60
2022/09/01 01:09:17;;;;;;;3.60;1.80;;;;;;;19.59;45.08;101933.25;6305489;22;20007;-60
2022/09/01 01:11:46;;;;;;;3.83;1.52;;;;;;;19.47;45.71;101936.38;6304784;22;20062;-59
2022/09/01 01:14:14;;;;;;;3.28;1.40;;;;;;;19.45;45.70;101932.16;6306061;22;20000;-59
2022/09/01 01:16:45;;;;;;;6.47;1.50;;;;;;;19.36;46.03;101931.91;6304460;22;20003;-59
2022/09/01 01:25:06;;;;;;;3.08;1.55;;;;;;;19.25;46.27;101925.47;6305001;22;20394;-59
2022/09/01 01:27:33;;;;;;;2.03;1.75;;;;;;;19.23;46.90;101930.56;6305561;22;20428;-59
2022/09/01 01:30:01;;;;;;;2.75;1.38;;;;;;;19.19;46.85;101932.25;6306159;22;20362;-59
2022/09/01 01:32:28;;;;;;;5.47;1.73;;;;;;;19.26;46.52;101927.19;6304914;22;20053;-59
2022/09/01 01:34:53;;;;;;;3.45;1.50;;;;;;;19.29;46.58;101929.41;6305856;22;20467;-59
2022/09/01 01:37:22;;;;;;;3.83;1.70;;;;;;;19.23;46.68;101932.53;6305069;22;20061;-60
2022/09/01 01:39:47;;;;;;;3.45;1.67;;;;;;;19.17;47.24;101926.06;6305265;22;20335;-60
2022/09/01 01:42:12;;;;;;;4.25;1.85;;;;;;;19.18;47.25;101933.38;6305504;22;20003;-59
2022/09/01 01:44:39;;;;;;;4.18;1.50;;;;;;;19.12;47.34;101940.16;6306010;22;20007;-60
2022/09/01 01:47:11;;;;;;;2.40;1.85;;;;;;;19.10;47.57;101926.38;6305270;22;20033;-59
2022/09/01 01:49:39;;;;;;;2.53;1.70;;;;;;;19.05;47.64;101936.78;6306163;22;20035;-60
2022/09/01 01:52:04;;;;;;;4.18;1.92;;;;;;;18.98;48.11;101934.28;6304231;22;20328;-60
2022/09/01 01:54:31;;;;;;;3.05;1.90;;;;;;;18.96;48.02;101930.03;6306008;22;20007;-60
2022/09/01 01:57:00;;;;;;;5.63;1.90;;;;;;;18.96;48.11;101944.13;6305125;22;20027;-59
2022/09/01 01:59:27;;;;;;;3.10;1.83;;;;;;;18.89;48.50;101950.03;6305210;22;20007;-60
2022/09/01 02:01:52;;;;;;;3.50;1.80;;;;;;;18.91;48.36;101942.16;6305754;22;20054;-60
2022/09/01 02:04:19;;;;;;;3.53;1.70;;;;;;;18.91;47.91;101936.53;6305869;22;20420;-60
2022/09/01 02:06:46;;;;;;;2.67;1.60;;;;;;;18.94;48.34;101943.53;6304354;22;20002;-60
2022/09/01 02:09:14;;;;;;;5.25;1.73;;;;;;;18.80;48.54;101944.13;6305752;22;20070;-59
2022/09/01 02:11:39;;;;;;;2.85;2.00;;;;;;;18.76;48.67;101939.34;6305885;22;20082;-59
2022/09/01 02:14:07;;;;;;;4.25;1.85;;;;;;;18.86;48.35;101944.94;6305283;22;20707;-59
2022/09/01 02:16:34;;;;;;;3.38;1.95;;;;;;;18.86;48.14;101942.13;6305168;22;20003;-60
2022/09/01 02:19:02;;;;;;;2.83;1.95;;;;;;;18.82;48.26;101941.00;6307721;22;20025;-60
2022/09/01 02:21:27;;;;;;;5.53;2.00;;;;;;;18.77;48.31;101944.69;6306624;22;20415;-60
2022/09/01 02:24:03;;;;;;;4.75;1.85;;;;;;;18.77;48.46;101939.06;6307696;22;20049;-60
2022/09/01 02:26:37;;;;;;;4.32;1.67;;;;;;;18.74;48.65;101942.41;6307169;22;20053;-59
2022/09/01 02:29:07;;;;;;;2.88;1.70;;;;;;;18.69;48.37;101941.56;6307148;22;20003;-59
2022/09/01 02:31:38;;;;;;;3.30;1.88;;;;;;;18.73;48.44;101940.75;6307536;22;20003;-59
2022/09/01 02:34:04;;;;;;;7.68;1.80;;;;;;;18.68;48.64;101937.91;6306588;22;20027;-59
2022/09/01 02:36:33;;;;;;;3.47;2.00;;;;;;;18.64;48.62;101939.59;6307626;22;20007;-59
2022/09/01 02:38:59;;;;;;;3.80;1.90;;;;;;;18.74;48.53;101950.03;6307726;22;20011;-59
2022/09/01 02:41:27;;;;;;;4.68;1.80;;;;;;;18.66;48.90;101940.16;6305837;22;20007;-59
2022/09/01 02:43:53;;;;;;;4.57;2.17;;;;;;;18.69;48.56;101945.22;6307079;22;20003;-59
2022/09/01 02:46:22;;;;;;;2.95;2.10;;;;;;;18.61;48.82;101937.34;6307023;22;20014;-60
2022/09/01 02:48:50;;;;;;;2.85;2.00;;;;;;;18.54;49.21;101940.41;6306888;22;20027;-59
2022/09/01 02:51:17;;;;;;;3.20;2.13;;;;;;;18.51;49.29;101940.13;6307465;22;19999;-60
2022/09/01 02:53:48;;;;;;;4.85;1.80;;;;;;;18.56;49.11;101935.38;6306784;22;20023;-60
2022/09/01 02:56:14;;;;;;;4.85;2.30;;;;;;;18.56;49.34;101926.94;6306304;22;20687;-59
2022/09/01 02:58:44;;;;;;;2.38;1.90;;;;;;;18.54;49.06;101929.19;6307309;22;20001;-59
2022/09/01 03:01:23;;;;;;;4.13;2.25;;;;;;;18.43;49.46;101929.44;6307157;22;20023;-60
2022/09/01 03:03:51;;;;;;;4.28;2.25;;;;;;;18.46;49.44;101920.47;6306547;22;20003;-60
2022/09/01 03:06:22;;;;;;;3.00;2.00;;;;;;;18.45;49.29;101919.63;6306502;22;20056;-60
2022/09/01 03:08:53;;;;;;;4.65;2.30;;;;;;;18.42;49.36;101920.19;6307662;22;19999;-60
2022/09/01 03:11:19;;;;;;;5.18;2.20;;;;;;;18.35;49.60;101914.84;6305398;22;20007;-60
2022/09/01 03:13:44;;;;;;;7.75;2.42;;;;;;;18.40;49.30;101920.47;6307106;22;20428;-60
2022/09/01 03:16:10;;;;;;;3.55;2.20;;;;;;;18.28;49.41;101919.06;6306617;22;20327;-61
2022/09/01 03:18:37;;;;;;;4.22;2.10;;;;;;;18.28;49.56;101922.72;6306561;22;20010;-60
2022/09/01 03:21:04;;;;;;;3.20;1.98;;;;;;;18.25;49.80;101926.06;6307014;22;20427;-60
2022/09/01 03:23:30;;;;;;;2.20;2.00;;;;;;;18.19;50.01;101921.56;6306100;22;20031;-60
2022/09/01 03:25:56;;;;;;;3.72;2.60;;;;;;;18.18;50.02;101925.50;6306881;22;20046;-60
2022/09/01 03:28:22;;;;;;;2.90;2.20;;;;;;;18.10;50.39;101928.84;6306940;22;20010;-60
2022/09/01 03:30:50;;;;;;;3.95;2.17;;;;;;;18.03;50.77;101928.25;6306853;22;20017;-60
2022/09/01 03:33:17;;;;;;;3.40;2.10;;;;;;;18.03;50.83;101920.69;6306899;22;20007;-60
2022/09/01 03:35:43;;;;;;;4.85;1.95;;;;;;;18.02;50.25;101927.44;6307034;22;20433;-60
2022/09/01 03:38:11;;;;;;;3.67;2.25;;;;;;;17.94;50.58;101921.50;6306105;22;20014;-60
2022/09/01 03:40:38;;;;;;;5.70;2.08;;;;;;;17.97;50.61;101921.81;6306971;22;19999;-60
2022/09/01 03:43:12;;;;;;;3.95;2.05;;;;;;;17.90;50.92;101924.88;6306573;22;20065;-60
2022/09/01 03:45:39;;;;;;;4.13;2.47;;;;;;;17.89;51.12;101922.34;6306154;22;20018;-60
2022/09/01 03:48:07;;;;;;;4.13;2.28;;;;;;;17.96;51.15;101916.44;6307101;22;20035;-60
2022/09/01 03:50:38;;;;;;;3.35;2.05;;;;;;;17.76;51.41;101920.88;6306658;22;19999;-60
2022/09/01 03:53:04;;;;;;;3.17;2.15;;;;;;;17.74;51.65;101911.88;6306502;22;20026;-60
2022/09/01 03:55:33;;;;;;;5.05;2.00;;;;;;;17.74;51.44;101916.63;6306960;22;20003;-60
2022/09/01 03:58:05;;;;;;;4.57;2.03;;;;;;;17.85;50.85;101921.22;6306373;22;19999;-60
2022/09/01 04:00:34;;;;;;;5.03;2.30;;;;;;;17.74;51.23;101911.88;6306182;22;20370;-60
2022/09/01 04:03:01;;;;;;;4.95;2.30;;;;;;;17.70;51.46;101919.16;6307012;22;20336;-60
2022/09/01 04:05:28;;;;;;;3.40;2.20;;;;;;;17.63;51.81;101916.59;6305604;22;20014;-60
2022/09/01 04:07:56;;;;;;;4.15;2.33;;;;;;;17.63;51.70;101915.75;6306857;22;20477;-60
2022/09/01 04:10:22;;;;;;;3.10;2.00;;;;;;;17.72;51.31;101916.06;6307091;22;20002;-60
2022/09/01 04:12:49;;;;;;;13.70;2.65;;;;;;;17.70;51.13;101913.53;6305970;22;20003;-60
2022/09/01 04:15:16;;;;;;;3.70;2.70;;;;;;;17.66;51.11;101912.41;6306286;22;20422;-60
2022/09/01 04:18:08;;;;;;;2.90;2.25;;;;;;;17.67;51.51;101914.91;6306178;22;20014;-60
2022/09/01 04:20:49;;;;;;;3.67;2.47;;;;;;;17.73;51.09;101907.38;6305820;22;20013;-60
2022/09/01 04:23:28;;;;;;;3.30;2.35;;;;;;;17.67;51.25;101909.31;6306865;22;20086;-60
2022/09/01 04:25:58;;;;;;;4.32;2.38;;;;;;;17.73;51.07;101910.19;6306489;22;20362;-60
2022/09/01 04:28:29;;;;;;;5.57;2.28;;;;;;;17.80;50.95;101919.22;6306439;22;20000;-60
2022/09/01 04:30:56;;;;;;;4.30;2.40;;;;;;;17.76;51.11;101918.06;6306603;22;20086;-60
2022/09/01 04:33:24;;;;;;;5.60;2.53;;;;;;;17.70;51.49;101916.34;6305620;22;20438;-60
2022/09/01 04:35:53;;;;;;;4.60;2.38;;;;;;;17.80;50.93;101912.75;6305386;22;20057;-60
2022/09/01 04:38:20;;;;;;;6.47;2.60;;;;;;;17.76;50.95;101922.84;6306675;22;19999;-58
2022/09/01 04:40:56;;;;;;;3.08;2.10;;;;;;;17.76;50.40;101923.69;6304995;22;20010;-60
2022/09/01 04:43:22;;;;;;;4.47;2.30;;;;;;;17.75;50.73;101921.16;6306071;22;20006;-58
2022/09/01 04:45:50;;;;;;;4.55;2.47;;;;;;;17.75;50.51;101924.81;6306147;22;20019;-58
2022/09/01 04:48:18;;;;;;;5.28;2.45;;;;;;;17.83;50.27;101927.09;6305395;22;20011;-60
2022/09/01 04:50:43;;;;;;;4.28;2.38;;;;;;;17.72;50.56;101916.91;6305612;22;20428;-59
2022/09/01 04:53:10;;;;;;;5.35;2.28;;;;;;;17.74;50.61;101925.06;6304886;22;20046;-58
2022/09/01 04:55:42;;;;;;;4.47;2.45;;;;;;;17.67;50.49;101920.53;6305108;22;20045;-59
2022/09/01 04:58:12;;;;;;;4.53;2.50;;;;;;;17.64;50.37;101925.84;6305934;22;20003;-58
2022/09/01 05:00:39;;;;;;;6.78;2.58;;;;;;;17.68;50.12;101921.38;6306126;22;20090;-59
2022/09/01 05:03:05;;;;;;;3.42;2.30;;;;;;;17.70;50.01;101921.97;6305451;22;20007;-59
2022/09/01 05:05:41;;;;;;;6.35;2.70;;;;;;;17.72;50.11;101930.94;6305371;22;20431;-59
2022/09/01 05:08:12;;;;;;;5.85;2.53;;;;;;;17.67;50.08;101922.50;6305787;22;20022;-59
2022/09/01 05:10:41;;;;;;;4.07;2.35;;;;;;;17.62;49.94;101922.50;6305278;22;20007;-59
2022/09/01 05:13:11;;;;;;;3.20;2.15;;;;;;;17.62;50.20;101922.50;6305739;22;20007;-59
2022/09/01 05:15:46;;;;;;;3.60;2.72;;;;;;;17.57;50.21;101928.94;6306140;22;20056;-60
2022/09/01 05:18:22;;;;;;;7.13;2.60;;;;;;;17.58;50.08;101926.97;6305764;22;20003;-60
2022/09/01 05:20:48;;;;;;;7.68;2.65;;;;;;;17.60;50.08;101928.38;6305678;22;20014;-60
2022/09/01 05:23:18;;;;;;;3.30;2.40;;;;;;;17.63;49.97;101924.19;6305110;22;20007;-60
2022/09/01 05:25:47;;;;;;;5.68;2.17;;;;;;;17.58;49.87;101932.59;6305429;22;19999;-59
2022/09/01 05:28:12;;;;;;;6.43;2.50;;;;;;;17.62;49.85;101930.91;6305435;22;19995;-60
2022/09/01 05:30:39;;;;;;;5.28;2.47;;;;;;;17.62;49.65;101925.31;6305127;22;20008;-59
2022/09/01 05:33:11;;;;;;;6.03;2.22;;;;;;;17.65;49.89;101924.75;6305112;22;20010;-60
2022/09/01 05:35:43;;;;;;;5.00;2.40;;;;;;;17.59;49.93;101929.50;6305503;22;20003;-59
2022/09/01 05:38:12;;;;;;;7.00;2.50;;;;;;;17.56;49.74;101930.03;6304489;22;20003;-59
2022/09/01 05:40:40;;;;;;;4.53;2.22;;;;;;;17.55;50.21;101931.16;6302564;22;20077;-59
2022/09/01 05:43:11;;;;;;;4.18;2.38;;;;;;;17.52;49.92;101922.44;6304594;22;20043;-59
2022/09/01 05:45:37;;;;;;;7.35;2.70;;;;;;;17.54;49.83;101931.44;6303316;22;20734;-59
2022/09/01 05:48:04;;;;;;;5.65;2.70;;;;;;;17.50;49.95;101935.91;6304994;22;19999;-59
2022/09/01 05:50:30;;;;;;;4.25;2.55;;;;;;;17.46;49.95;101935.63;6304770;22;20013;-59
2022/09/01 05:52:55;;;;;;;5.50;2.60;;;;;;;17.49;50.02;101931.41;6303343;22;19999;-59
2022/09/01 05:55:25;;;;;;;6.35;2.40;;;;;;;17.40;50.35;101931.09;6305584;22;20045;-59
2022/09/01 05:57:51;;;;;;;9.50;2.38;;;;;;;17.44;50.10;101937.84;6304994;22;20026;-59
2022/09/01 06:00:16;;;;;;;4.53;2.83;;;;;;;17.41;50.39;101933.63;6305654;22;20388;-59
2022/09/01 06:02:42;;;;;;;5.03;2.40;;;;;;;17.45;50.14;101941.47;6305347;22;20038;-59
2022/09/01 06:05:09;;;;;;;3.78;2.70;;;;;;;17.46;50.17;101941.22;6303171;22;20054;-59
2022/09/01 06:07:35;;;;;;;3.83;2.25;;;;;;;17.48;50.19;101938.13;6305368;22;20041;-59
2022/09/01 06:10:00;;;;;;;4.03;2.28;;;;;;;17.51;50.06;101943.22;6304410;22;19999;-60
2022/09/01 06:12:27;;;;;;;4.47;2.45;;;;;;;17.59;49.88;101939.88;6304719;22;20013;-60
2022/09/01 06:14:54;;;;;;;9.05;2.67;;;;;;;17.58;49.86;101949.44;6304412;22;20470;-59
2022/09/01 06:17:23;;;;;;;4.78;2.38;;;;;;;17.65;49.83;101950.03;6305331;22;20061;-59
2022/09/01 06:19:51;;;;;;;6.47;2.40;;;;;;;17.67;49.58;101950.59;6304524;22;20554;-59
2022/09/01 06:22:17;;;;;;;9.40;2.38;;;;;;;17.73;49.53;101943.88;6304913;22;20010;-59
2022/09/01 06:24:43;;;;;;;8.73;2.60;;;;;;;17.78;49.41;101943.09;6304959;22;20098;-59
2022/09/01 06:27:08;;;;;;;3.67;2.22;;;;;;;17.81;49.52;101950.97;6304195;22;20035;-59
2022/09/01 06:29:38;;;;;;;4.95;2.40;;;;;;;17.81;49.18;101943.38;6304228;22;20396;-59
2022/09/01 06:32:09;;;;;;;11.50;2.92;;;;;;;17.79;49.49;101945.59;6305907;22;20003;-59
2022/09/01 06:34:35;;;;;;;4.63;2.30;;;;;;;17.89;49.22;101953.25;6305355;22;19999;-59
2022/09/01 06:37:01;;;;;;;7.32;2.70;;;;;;;17.90;49.40;101950.16;6306004;22;20066;-59
2022/09/01 06:39:26;;;;;;;6.10;2.50;;;;;;;17.96;49.18;101951.03;6303422;22;20443;-59
2022/09/01 06:41:51;;;;;;;5.35;2.13;;;;;;;17.99;49.25;101944.81;6305093;22;20048;-59
2022/09/01 06:44:21;;;;;;;6.68;2.45;;;;;;;17.99;49.28;101953.25;6304444;22;20351;-59
2022/09/01 06:46:51;;;;;;;4.57;2.53;;;;;;;18.00;49.06;101942.84;6304886;22;20088;-59
2022/09/01 06:49:17;;;;;;;4.00;2.50;;;;;;;18.03;49.10;101953.56;6303846;22;20074;-60
2022/09/01 06:51:50;;;;;;;7.57;2.67;;;;;;;18.03;49.00;101950.75;6305399;22;20011;-59
2022/09/01 06:54:16;;;;;;;7.95;3.00;;;;;;;18.12;48.86;101949.94;6303955;22;20023;-59
2022/09/01 06:56:41;;;;;;;4.35;2.38;;;;;;;18.19;48.86;101948.81;6305436;22;20362;-59
2022/09/01 06:59:06;;;;;;;7.47;2.47;;;;;;;18.20;48.89;101951.38;6304873;22;20388;-58
2022/09/01 07:01:33;;;;;;;4.50;2.45;;;;;;;18.18;48.68;101955.56;6303689;22;20004;-58
2022/09/01 07:03:58;;;;;;;7.18;2.53;;;;;;;18.22;49.01;101956.69;6305666;22;20003;-58
2022/09/01 07:06:26;;;;;;;5.80;2.33;;;;;;;18.22;48.64;101959.50;6306520;22;20054;-59
2022/09/01 07:08:54;;;;;;;6.93;2.58;;;;;;;18.29;48.93;101966.53;6305650;22;20064;-59
2022/09/01 07:11:24;;;;;;;5.50;2.55;;;;;;;18.29;49.01;101966.53;6306110;22;20412;-60
2022/09/01 07:13:52;;;;;;;5.97;2.55;;;;;;;18.32;48.98;101966.00;6307049;22;20007;-59
2022/09/01 07:16:21;;;;;;;4.57;2.20;;;;;;;18.39;49.15;101962.91;6306182;22;20319;-59
2022/09/01 07:18:55;;;;;;;5.05;2.33;;;;;;;18.48;48.82;101968.84;6306926;22;20033;-59
2022/09/01 07:21:21;;;;;;;5.70;2.47;;;;;;;18.54;48.68;101973.31;6307408;22;20029;-59
2022/09/01 07:23:47;;;;;;;5.60;2.58;;;;;;;18.63;48.82;101963.22;6306013;22;20388;-60
2022/09/01 07:26:18;;;;;;;3.65;2.50;;;;;;;18.67;49.20;101967.16;6307592;22;20037;-60
2022/09/01 07:28:45;;;;;;;7.03;2.78;;;;;;;18.75;48.99;101969.44;6306739;22;20057;-60
2022/09/01 07:31:24;;;;;;;5.32;2.70;;;;;;;18.85;48.84;101977.88;6305933;22;20091;-60
2022/09/01 07:33:53;;;;;;;4.68;2.70;;;;;;;18.96;48.79;101970.28;6305039;22;20057;-60
2022/09/01 07:36:19;;;;;;;8.35;2.58;;;;;;;19.10;48.95;101962.97;6307320;22;20006;-60
2022/09/01 07:38:50;;;;;;;4.05;2.53;;;;;;;19.23;47.85;101966.31;6305985;22;20011;-60
2022/09/01 07:41:16;;;;;;;6.93;2.88;;;;;;;19.33;46.97;101961.47;6305518;22;20007;-59
2022/09/01 07:43:43;;;;;;;7.05;2.80;;;;;;;19.40;46.94;101961.19;6306064;22;20130;-60
2022/09/01 07:46:10;;;;;;;10.48;2.30;;;;;;;19.51;46.58;101964.81;6306626;22;20010;-60
2022/09/01 07:48:37;;;;;;;8.43;2.70;;;;;;;19.59;46.60;101975.50;6306735;22;20014;-60
2022/09/01 07:51:02;;;;;;;7.10;3.00;;;;;;;19.65;46.30;101974.41;6306121;22;20030;-60
2022/09/01 07:53:32;;;;;;;4.30;2.58;;;;;;;19.76;46.70;101969.53;6306637;22;19999;-59
2022/09/01 07:56:08;;;;;;;4.90;2.85;;;;;;;19.81;46.80;101963.91;6306493;22;20012;-59
2022/09/01 07:58:34;;;;;;;6.60;2.63;;;;;;;19.91;46.64;101963.84;6306479;22;19999;-59
2022/09/01 08:01:01;;;;;;;9.05;2.80;;;;;;;20.00;46.28;101958.44;6304720;22;20003;-59
2022/09/01 08:03:28;;;;;;;7.78;2.97;;;;;;;20.10;46.33;101955.56;6306757;22;20018;-59
2022/09/01 08:05:56;;;;;;;6.63;3.17;;;;;;;20.18;46.02;101969.06;6305048;22;20501;-59
2022/09/01 08:08:24;;;;;;;12.35;3.08;;;;;;;20.27;46.07;101961.66;6307075;22;20332;-59
2022/09/01 08:10:49;;;;;;;4.43;2.58;;;;;;;20.32;46.14;101963.63;6305626;22;19999;-60
2022/09/01 08:13:16;;;;;;;7.45;2.83;;;;;;;20.42;46.47;101957.91;6305591;22;20391;-59
2022/09/01 08:15:42;;;;;;;18.05;3.50;;;;;;;20.54;45.99;101966.88;6305383;22;20030;-59
2022/09/01 08:18:08;;;;;;;5.93;2.50;;;;;;;20.61;45.81;101966.53;6306912;22;20007;-58
2022/09/01 08:20:38;;;;;;;8.43;2.67;;;;;;;20.76;45.73;101971.22;6306176;22;20005;-58
2022/09/01 08:23:05;;;;;;;6.13;2.72;;;;;;;20.85;45.15;101963.81;6306969;22;20023;-59
2022/09/01 08:25:32;;;;;;;4.68;3.00;;;;;;;20.95;45.30;101965.72;6306466;22;20086;-59
2022/09/01 08:28:00;;;;;;;4.72;2.65;;;;;;;21.04;45.06;101969.56;6306121;22;20065;-58
2022/09/01 08:30:26;;;;;;;5.55;2.40;;;;;;;21.12;45.19;101974.56;6306735;22;20371;-58
2022/09/01 08:32:51;;;;;;;3.72;2.10;;;;;;;21.20;45.11;101964.59;6305008;22;20026;-59
2022/09/01 08:35:17;;;;;;;5.00;2.90;;;;;;;21.29;44.50;101962.81;6305771;22;20416;-59
2022/09/01 08:37:43;;;;;;;4.60;2.35;;;;;;;21.38;44.69;101957.38;6305659;22;20007;-59
2022/09/01 08:40:14;;;;;;;6.05;2.60;;;;;;;21.48;44.64;101962.91;6303637;22;20054;-60
2022/09/01 08:43:15;;;;;;;5.78;2.58;;;;;;;21.61;44.88;101964.16;6306752;22;20007;-59
2022/09/01 08:45:43;;;;;;;4.20;2.65;;;;;;;21.72;44.33;101960.91;6305750;22;20090;-59
2022/09/01 08:48:31;;;;;;;6.13;2.70;;;;;;;21.83;44.58;101964.47;6305143;22;20470;-59
2022/09/01 08:51:17;;;;;;;8.73;2.63;;;;;;;21.94;44.20;101970.84;6305955;22;20007;-59
2022/09/01 08:53:48;;;;;;;6.80;3.17;;;;;;;22.02;44.19;101962.50;6305016;22;20085;-59
2022/09/01 08:56:17;;;;;;;4.82;2.70;;;;;;;22.06;43.46;101968.41;6306286;22;20007;-59
2022/09/01 08:58:42;;;;;;;5.75;2.65;;;;;;;22.09;43.45;101964.16;6305962;22;20010;-59
2022/09/01 09:01:20;;;;;;;5.05;2.80;;;;;;;22.17;43.88;101963.50;6305278;22;19995;-59
2022/09/01 09:03:52;;;;;;;5.07;2.78;;;;;;;22.25;43.11;101965.63;6305779;22;20003;-59
2022/09/01 09:06:18;;;;;;;4.35;2.20;;;;;;;22.34;43.18;101960.13;6306153;22;20007;-59
2022/09/01 09:08:53;;;;;;;4.72;2.60;;;;;;;22.36;43.27;101955.84;6304868;22;20030;-59
2022/09/01 09:11:49;;;;;;;4.43;2.70;;;;;;;22.46;43.20;101955.69;6304818;22;20030;-59
2022/09/01 09:14:44;;;;;;;3.40;2.60;;;;;;;22.58;42.95;101963.69;6305997;22;20010;-59
2022/09/01 09:17:12;;;;;;;9.68;2.80;;;;;;;22.66;42.71;101957.34;6304327;22;20003;-59
2022/09/01 09:19:39;;;;;;;5.75;2.50;;;;;;;22.75;42.09;101949.84;6306234;22;20011;-59
2022/09/01 09:22:09;;;;;;;6.72;2.45;;;;;;;22.75;41.78;101951.81;6304679;22;20010;-59
2022/09/01 09:24:54;;;;;;;3.72;2.03;;;;;;;22.78;42.15;101951.19;6305162;22;20007;-59
2022/09/01 09:27:22;;;;;;;7.00;2.30;;;;;;;22.78;41.76;101946.38;6305643;22;20027;-60
2022/09/01 09:29:54;;;;;;;6.75;2.35;;;;;;;22.86;41.93;101952.47;6304864;22;20041;-60
2022/09/01 09:32:21;;;;;;;9.07;2.20;;;;;;;22.87;40.92;101946.53;6305080;22;20007;-60
2022/09/01 09:34:47;;;;;;;6.07;2.30;;;;;;;22.88;41.13;101945.38;6306157;22;19999;-60
2022/09/01 09:37:28;;;;;;;6.03;2.67;;;;;;;22.96;41.49;101941.03;6304655;22;20002;-60
2022/09/01 09:39:59;;;;;;;6.07;2.15;;;;;;;22.98;40.52;101933.03;6304932;22;20003;-60
2022/09/01 09:42:26;;;;;;;5.47;2.10;;;;;;;23.07;40.33;101938.81;6304709;22;20012;-60
2022/09/01 09:44:54;;;;;;;4.60;2.15;;;;;;;23.05;40.43;101927.81;6304520;22;20026;-61
2022/09/01 09:47:38;;;;;;;9.07;2.22;;;;;;;23.10;40.93;101926.88;6305037;22;20007;-60
2022/09/01 09:50:18;;;;;;;5.72;2.30;;;;;;;23.11;40.18;101925.72;6304460;22;20003;-60
2022/09/01 09:52:45;;;;;;;3.13;1.90;;;;;;;23.16;39.26;101931.31;6305648;22;20082;-60
2022/09/01 09:55:23;;;;;;;5.40;2.35;;;;;;;23.21;39.48;101915.03;6305550;22;19999;-60
2022/09/01 09:57:54;;;;;;;4.35;2.17;;;;;;;23.31;39.50;101904.69;6304322;22;20506;-60
2022/09/01 10:00:33;;;;;;;4.85;1.70;;;;;;;23.35;39.74;101915.06;6305782;22;20006;-60
2022/09/01 10:03:03;;;;;;;4.03;1.80;;;;;;;23.49;39.66;101909.38;6304535;22;20511;-60
2022/09/01 10:05:43;;;;;;;3.10;1.58;;;;;;;23.58;39.88;101909.47;6304971;22;20007;-60
2022/09/01 10:08:13;;;;;;;3.08;1.77;;;;;;;23.61;38.88;101901.19;6305591;22;20007;-60
2022/09/01 10:10:49;;;;;;;2.72;1.20;;;;;;;23.73;38.81;101906.34;6302440;22;20081;-60
2022/09/01 10:13:23;;;;;;;3.80;1.30;;;;;;;23.73;35.65;101912.03;6305431;22;20003;-60
2022/09/01 10:15:58;;;;;;;5.47;1.20;;;;;;;23.77;35.42;101904.56;6304595;22;20344;-60
2022/09/01 10:18:31;;;;;;;1.73;1.13;;;;;;;23.74;34.74;101900.38;6304854;22;20757;-60
2022/09/01 10:21:07;;;;;;;6.95;1.33;;;;;;;23.75;34.33;101887.88;6304606;22;20463;-60
2022/09/01 10:23:35;;;;;;;2.38;1.10;;;;;;;23.73;34.01;101898.69;6305624;22;20491;-60
2022/09/01 10:26:23;;;;;;;3.30;1.10;;;;;;;23.86;34.91;101896.16;6303287;22;20022;-60
2022/09/01 10:29:01;;;;;;;4.22;1.30;;;;;;;23.87;35.46;101895.00;6305988;22;20007;-60
2022/09/01 10:31:28;;;;;;;2.40;1.38;;;;;;;23.89;35.65;101884.16;6305807;22;20014;-60
2022/09/01 10:33:54;;;;;;;5.93;1.30;;;;;;;23.92;35.96;101892.88;6304833;22;20591;-60
2022/09/01 10:36:21;;;;;;;3.45;1.45;;;;;;;23.94;33.86;101898.25;6305469;22;20034;-61
2022/09/01 10:38:47;;;;;;;2.33;1.10;;;;;;;23.92;33.95;101890.03;6304889;22;19999;-61
2022/09/01 10:41:49;;;;;;;3.88;1.50;;;;;;;23.94;35.18;101893.41;6303692;22;20003;-60
2022/09/01 10:44:37;;;;;;;3.30;1.20;;;;;;;23.99;35.10;101883.94;6307935;22;20015;-59
2022/09/01 10:47:10;;;;;;;5.00;1.10;;;;;;;24.05;35.36;101899.69;6305965;22;20312;-60
2022/09/01 10:49:44;;;;;;;3.25;1.30;;;;;;;24.11;34.85;101892.72;6307720;22;20334;-60
2022/09/01 10:52:09;;;;;;;5.88;1.40;;;;;;;24.18;33.43;101892.28;6306802;22;20428;-59
2022/09/01 10:54:37;;;;;;;1.98;1.10;;;;;;;24.20;33.41;101895.63;6306663;22;20003;-59
2022/09/01 10:57:08;;;;;;;2.03;1.15;;;;;;;24.25;33.01;101889.84;6307878;22;20003;-59
2022/09/01 10:59:34;;;;;;;2.95;1.30;;;;;;;24.24;33.09;101894.66;6306841;22;20003;-59
2022/09/01 11:02:12;;;;;;;3.33;1.23;;;;;;;24.27;33.81;101890.34;6306645;22;20014;-59
2022/09/01 11:04:43;;;;;;;1.52;0.90;;;;;;;24.27;33.26;101884.69;6307493;22;20073;-59
2022/09/01 11:07:17;;;;;;;3.95;1.50;;;;;;;24.24;34.24;101894.66;6307665;22;20011;-59
2022/09/01 11:09:47;;;;;;;5.32;1.50;;;;;;;24.23;32.11;101893.00;6306649;22;20010;-59
2022/09/01 11:12:24;;;;;;;4.30;1.30;;;;;;;24.16;32.50;101886.91;6306398;22;20000;-59
2022/09/01 11:14:54;;;;;;;6.00;1.65;;;;;;;24.20;32.55;101879.44;6305323;22;20065;-59
2022/09/01 11:17:26;;;;;;;5.25;1.83;;;;;;;24.22;33.10;101890.50;6306788;22;20133;-60
2022/09/01 11:20:09;;;;;;;3.95;1.73;;;;;;;24.23;34.94;101880.81;6307255;22;19999;-59
2022/09/01 11:22:39;;;;;;;4.25;1.50;;;;;;;24.30;32.21;101877.53;6306430;22;20014;-59
2022/09/01 11:25:26;;;;;;;1.83;1.20;;;;;;;24.33;32.74;101877.75;6307454;22;20027;-59
2022/09/01 11:27:51;;;;;;;3.95;1.20;;;;;;;24.40;32.53;101871.63;6306184;22;20331;-59
2022/09/01 11:30:20;;;;;;;4.45;1.20;;;;;;;24.45;33.88;101882.88;6306162;22;20008;-60
2022/09/01 11:32:50;;;;;;;2.17;1.02;;;;;;;24.41;31.97;101870.50;6306148;22;20003;-59
2022/09/01 11:35:21;;;;;;;1.50;1.10;;;;;;;24.45;31.95;101860.16;6306841;22;20075;-59
2022/09/01 11:37:48;;;;;;;3.80;1.25;;;;;;;24.49;32.30;101859.19;6305843;22;20454;-59
2022/09/01 11:40:20;;;;;;;2.78;1.35;;;;;;;24.57;32.58;101863.25;6306027;22;20011;-59